createdAt,value
2018-06-17T00:00:03.550Z,0
2018-06-17T00:01:14.000Z,0
2018-06-17T00:02:24.140Z,0
2018-06-17T00:03:34.336Z,0
2018-06-17T00:04:44.717Z,0
2018-06-17T00:05:54.867Z,0
2018-06-17T00:07:05.008Z,0
2018-06-17T00:08:15.152Z,0
2018-06-17T00:09:25.312Z,0
2018-06-17T00:10:35.475Z,0
2018-06-17T00:11:45.823Z,0
2018-06-17T00:12:55.990Z,0
2018-06-17T00:14:06.416Z,0
2018-06-17T00:15:16.580Z,0
2018-06-17T00:16:26.380Z,0
2018-06-17T00:17:36.558Z,0
2018-06-17T00:18:46.494Z,0
2018-06-17T00:19:56.706Z,0
2018-06-17T00:21:06.958Z,0
2018-06-17T00:22:17.165Z,0
2018-06-17T00:23:27.272Z,0
2018-06-17T00:24:37.426Z,0
2018-06-17T00:25:47.611Z,0
2018-06-17T00:26:57.773Z,0
2018-06-17T00:28:07.899Z,0
2018-06-17T00:29:18.185Z,0
2018-06-17T00:30:28.398Z,0
2018-06-17T00:31:38.569Z,0
2018-06-17T00:32:48.788Z,0
2018-06-17T00:33:58.978Z,0
2018-06-17T00:35:09.158Z,0
2018-06-17T00:36:19.323Z,0
2018-06-17T00:37:29.512Z,0
2018-06-17T00:38:39.397Z,0
2018-06-17T00:39:49.597Z,0
2018-06-17T00:40:59.771Z,0
2018-06-17T00:42:09.906Z,0
2018-06-17T00:43:20.151Z,0
2018-06-17T00:44:30.387Z,0
2018-06-17T00:45:40.753Z,0
2018-06-17T00:46:50.917Z,0
2018-06-17T00:48:01.081Z,0
2018-06-17T00:49:11.376Z,0
2018-06-17T00:50:21.515Z,0
2018-06-17T00:51:31.702Z,0
2018-06-17T00:52:41.911Z,0
2018-06-17T00:53:52.090Z,0
2018-06-17T00:55:02.296Z,0
2018-06-17T00:56:12.492Z,0
2018-06-17T00:57:22.630Z,0
2018-06-17T00:58:32.496Z,0
2018-06-17T00:59:42.675Z,0
2018-06-17T01:00:52.805Z,0
2018-06-17T01:02:02.948Z,0
2018-06-17T01:03:13.105Z,0
2018-06-17T01:04:23.280Z,0
2018-06-17T01:05:33.461Z,0
2018-06-17T01:06:43.646Z,0
2018-06-17T01:07:54.061Z,0
2018-06-17T01:09:04.276Z,0
2018-06-17T01:10:14.609Z,0
2018-06-17T01:11:24.782Z,0
2018-06-17T01:12:35.011Z,0
2018-06-17T01:13:45.169Z,0
2018-06-17T01:14:55.349Z,0
2018-06-17T01:16:05.401Z,0
2018-06-17T01:17:15.384Z,0
2018-06-17T01:18:25.549Z,0
2018-06-17T01:19:35.677Z,0
2018-06-17T01:20:45.840Z,0
2018-06-17T01:21:55.987Z,0
2018-06-17T01:23:06.434Z,0
2018-06-17T01:24:16.640Z,0
2018-06-17T01:25:26.876Z,0
2018-06-17T01:26:37.995Z,0
2018-06-17T01:27:48.280Z,0
2018-06-17T01:28:58.445Z,0
2018-06-17T01:30:08.687Z,0
2018-06-17T01:31:18.893Z,0
2018-06-17T01:32:29.088Z,0
2018-06-17T01:33:39.318Z,0
2018-06-17T01:34:49.538Z,0
2018-06-17T01:35:59.057Z,0
2018-06-17T01:37:09.192Z,0
2018-06-17T01:38:19.372Z,0
2018-06-17T01:39:29.278Z,0
2018-06-17T01:40:39.462Z,0
2018-06-17T01:41:49.582Z,0
2018-06-17T01:42:59.945Z,0
2018-06-17T01:44:10.101Z,0
2018-06-17T01:45:19.695Z,0
2018-06-17T01:46:29.839Z,0
2018-06-17T01:47:40.137Z,0
2018-06-17T01:48:50.339Z,0
2018-06-17T01:50:00.689Z,0
2018-06-17T01:51:10.922Z,0
2018-06-17T01:52:21.057Z,0
2018-06-17T01:53:31.205Z,0
2018-06-17T01:54:41.350Z,0
2018-06-17T01:55:51.580Z,0
2018-06-17T01:57:01.776Z,0
2018-06-17T01:58:12.081Z,0
2018-06-17T01:59:22.328Z,0
2018-06-17T02:00:32.593Z,0
2018-06-17T02:01:42.783Z,0
2018-06-17T02:02:52.971Z,0
2018-06-17T02:04:03.120Z,0
2018-06-17T02:05:13.359Z,0
2018-06-17T02:06:23.576Z,0
2018-06-17T02:07:33.779Z,0
2018-06-17T02:08:43.913Z,0
2018-06-17T02:09:54.026Z,0
2018-06-17T02:11:04.153Z,0
2018-06-17T02:12:14.494Z,0
2018-06-17T02:13:24.645Z,0
2018-06-17T02:14:34.450Z,0
2018-06-17T02:15:44.586Z,0
2018-06-17T02:16:55.761Z,0
2018-06-17T02:18:10.785Z,0
2018-06-17T02:19:22.530Z,0
2018-06-17T02:20:32.683Z,0
2018-06-17T02:21:42.808Z,0
2018-06-17T02:24:12.943Z,0
2018-06-17T02:25:25.329Z,0
2018-06-17T02:26:35.464Z,0
2018-06-17T02:27:45.637Z,0
2018-06-17T02:28:55.806Z,0
2018-06-17T02:30:06.047Z,0
2018-06-17T02:31:16.243Z,0
2018-06-17T02:32:26.182Z,0
2018-06-17T02:33:36.087Z,0
2018-06-17T02:34:46.240Z,0
2018-06-17T02:35:56.383Z,0
2018-06-17T02:37:06.573Z,0
2018-06-17T02:38:16.727Z,0
2018-06-17T02:39:26.883Z,0
2018-06-17T02:40:37.057Z,0
2018-06-17T02:41:47.343Z,0
2018-06-17T02:42:57.487Z,0
2018-06-17T02:44:07.321Z,0
2018-06-17T02:45:17.521Z,0
2018-06-17T02:46:27.700Z,0
2018-06-17T02:47:38.026Z,0
2018-06-17T02:48:47.959Z,0
2018-06-17T02:49:58.100Z,5
2018-06-17T02:51:08.463Z,5
2018-06-17T02:52:18.606Z,5
2018-06-17T02:53:28.744Z,5
2018-06-17T02:54:38.867Z,5
2018-06-17T02:55:49.049Z,5
2018-06-17T02:56:58.849Z,5
2018-06-17T02:58:09.033Z,5
2018-06-17T02:59:19.269Z,5
2018-06-17T03:00:29.532Z,5
2018-06-17T03:01:39.673Z,10
2018-06-17T03:02:49.903Z,10
2018-06-17T03:03:59.948Z,10
2018-06-17T03:05:10.138Z,10
2018-06-17T03:06:20.055Z,10
2018-06-17T03:07:30.191Z,15
2018-06-17T03:08:39.991Z,15
2018-06-17T03:09:50.191Z,15
2018-06-17T03:11:00.393Z,15
2018-06-17T03:12:10.759Z,15
2018-06-17T03:13:20.631Z,20
2018-06-17T03:14:30.798Z,20
2018-06-17T03:15:40.938Z,20
2018-06-17T03:16:51.248Z,20
2018-06-17T03:18:01.419Z,20
2018-06-17T03:19:11.558Z,20
2018-06-17T03:20:21.766Z,20
2018-06-17T03:21:31.976Z,25
2018-06-17T03:22:42.124Z,25
2018-06-17T03:23:52.295Z,25
2018-06-17T03:25:02.470Z,25
2018-06-17T03:26:12.732Z,30
2018-06-17T03:27:23.335Z,30
2018-06-17T03:28:33.490Z,35
2018-06-17T03:29:43.620Z,35
2018-06-17T03:30:53.858Z,35
2018-06-17T03:32:04.007Z,40
2018-06-17T03:33:14.144Z,40
2018-06-17T03:34:24.357Z,40
2018-06-17T03:35:34.604Z,40
2018-06-17T03:36:44.751Z,45
2018-06-17T03:37:54.934Z,50
2018-06-17T03:39:05.134Z,50
2018-06-17T03:40:15.307Z,50
2018-06-17T03:41:25.456Z,55
2018-06-17T03:42:35.575Z,55
2018-06-17T03:43:45.704Z,55
2018-06-17T03:44:55.613Z,55
2018-06-17T03:46:05.735Z,55
2018-06-17T03:47:16.087Z,55
2018-06-17T03:48:26.222Z,60
2018-06-17T03:49:36.376Z,60
2018-06-17T03:50:46.590Z,55
2018-06-17T03:51:56.713Z,60
2018-06-17T03:53:08.068Z,60
2018-06-17T03:54:18.204Z,60
2018-06-17T03:55:28.138Z,60
2018-06-17T03:56:38.336Z,60
2018-06-17T03:57:48.284Z,60
2018-06-17T03:58:58.783Z,60
2018-06-17T04:00:08.961Z,60
2018-06-17T04:01:19.103Z,60
2018-06-17T04:02:29.473Z,65
2018-06-17T04:03:39.607Z,65
2018-06-17T04:04:49.746Z,65
2018-06-17T04:05:59.832Z,70
2018-06-17T04:07:10.080Z,75
2018-06-17T04:08:20.397Z,75
2018-06-17T04:09:30.567Z,75
2018-06-17T04:10:40.962Z,75
2018-06-17T04:11:51.105Z,70
2018-06-17T04:13:01.278Z,70
2018-06-17T04:14:11.567Z,65
2018-06-17T04:15:21.711Z,65
2018-06-17T04:16:31.967Z,65
2018-06-17T04:17:42.124Z,70
2018-06-17T04:18:52.366Z,70
2018-06-17T04:20:02.564Z,70
2018-06-17T04:21:12.736Z,70
2018-06-17T04:22:23.026Z,70
2018-06-17T04:23:32.959Z,70
2018-06-17T04:24:42.948Z,70
2018-06-17T04:25:53.170Z,70
2018-06-17T04:27:03.354Z,70
2018-06-17T04:28:13.498Z,65
2018-06-17T04:29:23.643Z,65
2018-06-17T04:30:33.787Z,65
2018-06-17T04:31:43.915Z,65
2018-06-17T04:32:54.038Z,65
2018-06-17T04:34:04.224Z,65
2018-06-17T04:35:14.461Z,70
2018-06-17T04:36:24.464Z,70
2018-06-17T04:37:34.610Z,75
2018-06-17T04:38:44.746Z,85
2018-06-17T04:39:54.905Z,90
2018-06-17T04:41:05.060Z,90
2018-06-17T04:42:15.246Z,90
2018-06-17T04:43:25.604Z,100
2018-06-17T04:44:35.826Z,105
2018-06-17T04:45:45.982Z,105
2018-06-17T04:46:56.202Z,105
2018-06-17T04:48:06.362Z,105
2018-06-17T04:49:16.670Z,105
2018-06-17T04:50:26.820Z,115
2018-06-17T04:51:36.961Z,115
2018-06-17T04:52:47.118Z,115
2018-06-17T04:53:57.561Z,110
2018-06-17T04:55:08.069Z,105
2018-06-17T04:56:18.224Z,100
2018-06-17T04:57:28.372Z,105
2018-06-17T04:58:38.518Z,115
2018-06-17T04:59:48.678Z,125
2018-06-17T05:00:58.913Z,130
2018-06-17T05:02:09.074Z,135
2018-06-17T05:03:19.228Z,135
2018-06-17T05:04:29.490Z,125
2018-06-17T05:05:39.714Z,120
2018-06-17T05:06:49.856Z,110
2018-06-17T05:08:00.038Z,95
2018-06-17T05:09:10.205Z,90
2018-06-17T05:10:20.343Z,90
2018-06-17T05:11:30.488Z,90
2018-06-17T05:12:40.638Z,95
2018-06-17T05:13:50.778Z,95
2018-06-17T05:15:00.982Z,95
2018-06-17T05:16:11.369Z,95
2018-06-17T05:17:21.582Z,100
2018-06-17T05:18:31.830Z,110
2018-06-17T05:19:41.995Z,115
2018-06-17T05:20:52.125Z,110
2018-06-17T05:22:02.344Z,100
2018-06-17T05:23:12.487Z,105
2018-06-17T05:24:22.636Z,135
2018-06-17T05:25:32.777Z,135
2018-06-17T05:26:42.981Z,145
2018-06-17T05:27:53.343Z,155
2018-06-17T05:29:03.518Z,160
2018-06-17T05:30:13.700Z,185
2018-06-17T05:31:23.586Z,205
2018-06-17T05:32:33.721Z,225
2018-06-17T05:33:43.698Z,220
2018-06-17T05:34:53.533Z,195
2018-06-17T05:36:03.664Z,185
2018-06-17T05:37:13.822Z,175
2018-06-17T05:38:23.990Z,155
2018-06-17T05:39:36.647Z,140
2018-06-17T05:40:48.150Z,125
2018-06-17T05:41:58.286Z,150
2018-06-17T05:43:08.441Z,150
2018-06-17T05:44:18.583Z,185
2018-06-17T05:45:30.739Z,180
2018-06-17T05:46:40.954Z,170
2018-06-17T05:47:51.048Z,165
2018-06-17T05:49:01.514Z,165
2018-06-17T05:50:11.770Z,165
2018-06-17T05:51:21.951Z,165
2018-06-17T05:52:32.120Z,170
2018-06-17T05:53:42.401Z,175
2018-06-17T05:54:52.560Z,175
2018-06-17T05:56:02.731Z,175
2018-06-17T05:57:12.979Z,180
2018-06-17T05:58:23.254Z,175
2018-06-17T05:59:33.474Z,190
2018-06-17T06:00:43.696Z,210
2018-06-17T06:01:53.851Z,250
2018-06-17T06:03:04.225Z,315
2018-06-17T06:04:14.901Z,310
2018-06-17T06:05:25.062Z,310
2018-06-17T06:06:35.205Z,305
2018-06-17T06:07:45.370Z,250
2018-06-17T06:08:55.517Z,240
2018-06-17T06:10:05.656Z,220
2018-06-17T06:11:15.638Z,200
2018-06-17T06:12:25.917Z,180
2018-06-17T06:13:36.108Z,190
2018-06-17T06:14:46.308Z,195
2018-06-17T06:15:56.530Z,190
2018-06-17T06:17:06.770Z,185
2018-06-17T06:18:16.952Z,185
2018-06-17T06:19:27.208Z,195
2018-06-17T06:20:37.469Z,205
2018-06-17T06:21:47.824Z,205
2018-06-17T06:22:57.838Z,195
2018-06-17T06:24:08.247Z,195
2018-06-17T06:25:18.183Z,220
2018-06-17T06:26:28.607Z,235
2018-06-17T06:27:38.753Z,245
2018-06-17T06:28:48.925Z,250
2018-06-17T06:29:59.162Z,265
2018-06-17T06:31:09.664Z,295
2018-06-17T06:32:19.881Z,325
2018-06-17T06:33:30.047Z,340
2018-06-17T06:34:40.203Z,310
2018-06-17T06:35:50.387Z,305
2018-06-17T06:37:00.575Z,345
2018-06-17T06:38:10.792Z,375
2018-06-17T06:39:20.983Z,415
2018-06-17T06:40:31.316Z,395
2018-06-17T06:41:41.211Z,350
2018-06-17T06:42:51.133Z,350
2018-06-17T06:44:01.306Z,390
2018-06-17T06:45:11.476Z,410
2018-06-17T06:46:21.390Z,405
2018-06-17T06:47:31.593Z,410
2018-06-17T06:48:41.791Z,410
2018-06-17T06:49:52.044Z,400
2018-06-17T06:51:02.601Z,375
2018-06-17T06:52:12.842Z,370
2018-06-17T06:53:22.831Z,370
2018-06-17T06:54:33.009Z,350
2018-06-17T06:55:43.162Z,335
2018-06-17T06:56:53.347Z,320
2018-06-17T06:58:03.555Z,295
2018-06-17T06:59:13.868Z,275
2018-06-17T07:00:24.063Z,270
2018-06-17T07:01:34.258Z,250
2018-06-17T07:02:44.547Z,260
2018-06-17T07:03:54.699Z,345
2018-06-17T07:05:04.852Z,370
2018-06-17T07:06:15.068Z,370
2018-06-17T07:07:25.316Z,355
2018-06-17T07:08:35.670Z,345
2018-06-17T07:09:45.934Z,360
2018-06-17T07:10:56.117Z,385
2018-06-17T07:12:06.277Z,355
2018-06-17T07:13:16.456Z,335
2018-06-17T07:14:26.674Z,350
2018-06-17T07:15:36.876Z,395
2018-06-17T07:16:47.184Z,470
2018-06-17T07:17:57.380Z,500
2018-06-17T07:19:07.599Z,470
2018-06-17T07:20:17.995Z,445
2018-06-17T07:21:28.214Z,425
2018-06-17T07:22:38.374Z,390
2018-06-17T07:23:48.577Z,330
2018-06-17T07:24:58.841Z,315
2018-06-17T07:26:09.022Z,335
2018-06-17T07:27:19.186Z,375
2018-06-17T07:28:29.377Z,395
2018-06-17T07:29:39.716Z,365
2018-06-17T07:30:49.879Z,350
2018-06-17T07:32:00.064Z,360
2018-06-17T07:33:10.285Z,345
2018-06-17T07:34:20.494Z,370
2018-06-17T07:35:30.694Z,455
2018-06-17T07:36:40.852Z,455
2018-06-17T07:37:50.744Z,360
2018-06-17T07:39:00.970Z,305
2018-06-17T07:40:11.107Z,315
2018-06-17T07:41:21.304Z,345
2018-06-17T07:42:31.200Z,365
2018-06-17T07:43:41.381Z,370
2018-06-17T07:44:51.545Z,390
2018-06-17T07:46:01.728Z,420
2018-06-17T07:47:12.187Z,430
2018-06-17T07:48:22.349Z,420
2018-06-17T07:49:32.991Z,445
2018-06-17T07:50:43.150Z,490
2018-06-17T07:51:53.291Z,520
2018-06-17T07:53:03.693Z,510
2018-06-17T07:54:13.859Z,465
2018-06-17T07:55:24.038Z,525
2018-06-17T07:56:34.250Z,580
2018-06-17T07:57:44.462Z,475
2018-06-17T07:58:54.662Z,540
2018-06-17T08:00:04.843Z,540
2018-06-17T08:01:15.037Z,615
2018-06-17T08:02:25.248Z,590
2018-06-17T08:03:35.520Z,570
2018-06-17T08:04:45.955Z,505
2018-06-17T08:05:56.203Z,435
2018-06-17T08:07:06.608Z,425
2018-06-17T08:08:16.855Z,460
2018-06-17T08:09:27.053Z,460
2018-06-17T08:10:37.338Z,445
2018-06-17T08:11:47.251Z,420
2018-06-17T08:12:57.416Z,445
2018-06-17T08:14:07.620Z,460
2018-06-17T08:15:17.814Z,440
2018-06-17T08:16:27.969Z,425
2018-06-17T08:17:38.140Z,415
2018-06-17T08:18:48.409Z,425
2018-06-17T08:19:58.618Z,450
2018-06-17T08:21:08.923Z,455
2018-06-17T08:22:19.331Z,475
2018-06-17T08:23:29.722Z,485
2018-06-17T08:24:40.174Z,500
2018-06-17T08:25:50.359Z,545
2018-06-17T08:27:00.526Z,610
2018-06-17T08:28:10.747Z,590
2018-06-17T08:29:20.933Z,485
2018-06-17T08:30:31.292Z,420
2018-06-17T08:31:41.519Z,360
2018-06-17T08:32:51.481Z,455
2018-06-17T08:34:01.721Z,525
2018-06-17T08:35:12.035Z,485
2018-06-17T08:36:22.284Z,560
2018-06-17T08:37:32.491Z,585
2018-06-17T08:38:42.703Z,525
2018-06-17T08:39:52.917Z,700
2018-06-17T08:41:03.188Z,735
2018-06-17T08:42:13.493Z,730
2018-06-17T08:43:23.680Z,915
2018-06-17T08:44:33.869Z,1005
2018-06-17T08:45:44.141Z,1110
2018-06-17T08:46:54.795Z,475
2018-06-17T08:48:05.078Z,975
2018-06-17T08:49:14.901Z,1575
2018-06-17T08:50:25.133Z,1285
2018-06-17T08:51:35.318Z,505
2018-06-17T08:52:45.484Z,585
2018-06-17T08:53:55.684Z,640
2018-06-17T08:55:05.859Z,620
2018-06-17T08:56:16.209Z,635
2018-06-17T08:57:26.438Z,555
2018-06-17T08:58:36.626Z,655
2018-06-17T08:59:47.087Z,710
2018-06-17T09:00:57.363Z,690
2018-06-17T09:02:07.650Z,715
2018-06-17T09:03:17.832Z,1045
2018-06-17T09:04:28.054Z,1915
2018-06-17T09:05:38.245Z,605
2018-06-17T09:06:48.172Z,495
2018-06-17T09:07:58.380Z,515
2018-06-17T09:09:08.603Z,660
2018-06-17T09:10:19.105Z,1765
2018-06-17T09:11:29.355Z,560
2018-06-17T09:12:39.541Z,435
2018-06-17T09:13:49.766Z,600
2018-06-17T09:15:00.069Z,1970
2018-06-17T09:16:10.457Z,2155
2018-06-17T09:17:20.586Z,2280
2018-06-17T09:18:30.781Z,2355
2018-06-17T09:19:41.098Z,2115
2018-06-17T09:20:51.345Z,2440
2018-06-17T09:22:01.815Z,2520
2018-06-17T09:23:12.028Z,2000
2018-06-17T09:24:22.257Z,625
2018-06-17T09:25:32.507Z,2360
2018-06-17T09:26:42.363Z,2210
2018-06-17T09:27:52.824Z,450
2018-06-17T09:29:02.801Z,550
2018-06-17T09:30:12.744Z,2305
2018-06-17T09:31:22.983Z,625
2018-06-17T09:32:33.176Z,570
2018-06-17T09:33:43.435Z,605
2018-06-17T09:34:53.813Z,545
2018-06-17T09:36:03.767Z,665
2018-06-17T09:37:14.014Z,660
2018-06-17T09:38:24.212Z,685
2018-06-17T09:39:34.416Z,610
2018-06-17T09:40:44.592Z,630
2018-06-17T09:41:54.782Z,580
2018-06-17T09:43:05.021Z,515
2018-06-17T09:44:15.244Z,470
2018-06-17T09:45:25.442Z,430
2018-06-17T09:46:35.657Z,420
2018-06-17T09:47:45.882Z,470
2018-06-17T09:48:57.055Z,565
2018-06-17T09:50:07.002Z,780
2018-06-17T09:51:17.328Z,1245
2018-06-17T09:52:27.642Z,815
2018-06-17T09:53:37.877Z,755
2018-06-17T09:54:48.075Z,615
2018-06-17T09:55:58.422Z,850
2018-06-17T09:57:08.614Z,960
2018-06-17T09:58:18.841Z,2795
2018-06-17T09:59:29.038Z,1285
2018-06-17T10:00:39.683Z,1105
2018-06-17T10:01:50.186Z,2775
2018-06-17T10:03:00.504Z,2705
2018-06-17T10:04:10.797Z,2750
2018-06-17T10:05:21.301Z,2805
2018-06-17T10:06:33.471Z,700
2018-06-17T10:07:43.698Z,785
2018-06-17T10:08:54.171Z,775
2018-06-17T10:10:04.394Z,2625
2018-06-17T10:11:14.826Z,1060
2018-06-17T10:12:25.025Z,855
2018-06-17T10:13:35.272Z,1340
2018-06-17T10:14:45.705Z,805
2018-06-17T10:15:56.089Z,2515
2018-06-17T10:17:06.326Z,2455
2018-06-17T10:18:16.526Z,2445
2018-06-17T10:19:26.436Z,2430
2018-06-17T10:20:36.598Z,2600
2018-06-17T10:21:46.845Z,2760
2018-06-17T10:22:57.335Z,2655
2018-06-17T10:24:07.495Z,800
2018-06-17T10:25:17.691Z,3185
2018-06-17T10:26:27.986Z,3070
2018-06-17T10:27:38.299Z,3250
2018-06-17T10:28:48.560Z,3315
2018-06-17T10:29:58.771Z,3355
2018-06-17T10:31:08.987Z,3360
2018-06-17T10:32:19.269Z,3355
2018-06-17T10:33:29.474Z,3215
2018-06-17T10:34:39.681Z,3240
2018-06-17T10:35:49.931Z,3290
2018-06-17T10:37:00.183Z,3440
2018-06-17T10:38:10.671Z,3450
2018-06-17T10:39:20.862Z,3545
2018-06-17T10:40:31.131Z,3275
2018-06-17T10:41:41.370Z,1240
2018-06-17T10:42:51.602Z,940
2018-06-17T10:44:01.827Z,3430
2018-06-17T10:45:12.136Z,2750
2018-06-17T10:46:22.360Z,1385
2018-06-17T10:47:32.592Z,1110
2018-06-17T10:48:42.859Z,1015
2018-06-17T10:49:53.146Z,1295
2018-06-17T10:51:03.328Z,3350
2018-06-17T10:52:13.505Z,1900
2018-06-17T10:53:23.741Z,1110
2018-06-17T10:54:33.939Z,1125
2018-06-17T10:55:44.385Z,1010
2018-06-17T10:56:54.795Z,955
2018-06-17T10:58:04.729Z,870
2018-06-17T10:59:14.979Z,870
2018-06-17T11:00:25.192Z,755
2018-06-17T11:01:35.455Z,605
2018-06-17T11:02:45.717Z,700
2018-06-17T11:03:55.952Z,1195
2018-06-17T11:05:06.272Z,945
2018-06-17T11:06:16.590Z,670
2018-06-17T11:07:26.784Z,590
2018-06-17T11:08:37.069Z,700
2018-06-17T11:09:47.264Z,555
2018-06-17T11:10:57.485Z,545
2018-06-17T11:12:07.742Z,630
2018-06-17T11:13:18.193Z,1330
2018-06-17T11:14:28.455Z,2805
2018-06-17T11:15:38.707Z,1060
2018-06-17T11:16:48.878Z,890
2018-06-17T11:17:59.059Z,760
2018-06-17T11:19:09.264Z,605
2018-06-17T11:20:19.448Z,550
2018-06-17T11:21:30.593Z,550
2018-06-17T11:22:40.793Z,590
2018-06-17T11:23:51.028Z,655
2018-06-17T11:25:01.214Z,640
2018-06-17T11:26:11.183Z,670
2018-06-17T11:27:21.366Z,740
2018-06-17T11:28:31.991Z,865
2018-06-17T11:29:42.148Z,3220
2018-06-17T11:30:52.366Z,3465
2018-06-17T11:32:02.553Z,1700
2018-06-17T11:33:12.738Z,2020
2018-06-17T11:34:22.938Z,1350
2018-06-17T11:35:33.189Z,2410
2018-06-17T11:36:43.426Z,3335
2018-06-17T11:37:53.634Z,3370
2018-06-17T11:39:04.421Z,3490
2018-06-17T11:40:14.390Z,3460
2018-06-17T11:41:24.597Z,3350
2018-06-17T11:42:37.036Z,2030
2018-06-17T11:43:47.292Z,1025
2018-06-17T11:44:57.727Z,930
2018-06-17T11:46:07.926Z,980
2018-06-17T11:47:18.147Z,1045
2018-06-17T11:48:28.363Z,2605
2018-06-17T11:49:38.667Z,3480
2018-06-17T11:50:48.960Z,3560
2018-06-17T11:51:59.175Z,630
2018-06-17T11:53:09.391Z,745
2018-06-17T11:54:19.576Z,3335
2018-06-17T11:55:29.778Z,3105
2018-06-17T11:56:40.001Z,3215
2018-06-17T11:57:50.222Z,3485
2018-06-17T11:59:00.434Z,2045
2018-06-17T12:00:10.648Z,2720
2018-06-17T12:01:21.115Z,1225
2018-06-17T12:02:31.273Z,3345
2018-06-17T12:03:41.480Z,3315
2018-06-17T12:04:51.690Z,3510
2018-06-17T12:06:01.734Z,1150
2018-06-17T12:07:11.729Z,965
2018-06-17T12:08:21.911Z,1055
2018-06-17T12:09:31.962Z,1175
2018-06-17T12:10:42.186Z,1620
2018-06-17T12:11:52.593Z,1055
2018-06-17T12:13:02.828Z,775
2018-06-17T12:14:13.011Z,750
2018-06-17T12:15:26.696Z,790
2018-06-17T12:16:37.924Z,1930
2018-06-17T12:17:48.321Z,1140
2018-06-17T12:18:58.740Z,915
2018-06-17T12:20:09.230Z,985
2018-06-17T12:21:19.666Z,2875
2018-06-17T12:22:29.838Z,1530
2018-06-17T12:23:40.061Z,2480
2018-06-17T12:24:50.297Z,1450
2018-06-17T12:26:00.497Z,3090
2018-06-17T12:27:10.708Z,3185
2018-06-17T12:28:20.933Z,1030
2018-06-17T12:29:31.170Z,720
2018-06-17T12:30:41.391Z,715
2018-06-17T12:31:51.614Z,720
2018-06-17T12:33:01.862Z,715
2018-06-17T12:34:12.083Z,670
2018-06-17T12:35:22.062Z,585
2018-06-17T12:36:32.620Z,510
2018-06-17T12:37:42.837Z,495
2018-06-17T12:38:53.078Z,575
2018-06-17T12:40:03.035Z,810
2018-06-17T12:41:13.401Z,1290
2018-06-17T12:42:23.594Z,925
2018-06-17T12:43:33.838Z,910
2018-06-17T12:44:44.061Z,1225
2018-06-17T12:45:54.006Z,1770
2018-06-17T12:47:04.259Z,825
2018-06-17T12:48:14.595Z,1130
2018-06-17T12:49:24.797Z,1110
2018-06-17T12:50:35.492Z,2855
2018-06-17T12:51:45.839Z,1105
2018-06-17T12:52:56.073Z,1810
2018-06-17T12:54:06.259Z,3225
2018-06-17T12:55:16.430Z,3345
2018-06-17T12:56:26.641Z,1780
2018-06-17T12:57:37.103Z,2940
2018-06-17T12:58:47.334Z,3245
2018-06-17T12:59:57.517Z,930
2018-06-17T13:01:07.699Z,2345
2018-06-17T13:02:17.891Z,2125
2018-06-17T13:03:28.072Z,2230
2018-06-17T13:04:38.420Z,2540
2018-06-17T13:05:48.886Z,1115
2018-06-17T13:06:59.135Z,1065
2018-06-17T13:08:09.470Z,765
2018-06-17T13:09:19.427Z,735
2018-06-17T13:10:29.629Z,1010
2018-06-17T13:11:39.839Z,1755
2018-06-17T13:12:50.320Z,1875
2018-06-17T13:14:00.506Z,765
2018-06-17T13:15:10.702Z,700
2018-06-17T13:16:20.893Z,670
2018-06-17T13:17:31.122Z,710
2018-06-17T13:18:41.378Z,770
2018-06-17T13:19:51.675Z,800
2018-06-17T13:21:01.860Z,800
2018-06-17T13:22:12.090Z,710
2018-06-17T13:23:22.323Z,720
2018-06-17T13:24:32.561Z,875
2018-06-17T13:25:42.868Z,1120
2018-06-17T13:26:53.096Z,2310
2018-06-17T13:28:03.292Z,880
2018-06-17T13:29:13.489Z,750
2018-06-17T13:30:23.666Z,515
2018-06-17T13:31:33.886Z,470
2018-06-17T13:32:44.059Z,440
2018-06-17T13:33:54.255Z,430
2018-06-17T13:35:04.495Z,495
2018-06-17T13:36:14.721Z,765
2018-06-17T13:37:24.902Z,565
2018-06-17T13:38:35.130Z,555
2018-06-17T13:39:45.358Z,580
2018-06-17T13:40:55.668Z,620
2018-06-17T13:42:05.930Z,725
2018-06-17T13:43:16.184Z,735
2018-06-17T13:44:26.391Z,750
2018-06-17T13:45:36.860Z,1345
2018-06-17T13:46:47.126Z,1105
2018-06-17T13:47:57.388Z,880
2018-06-17T13:49:07.580Z,785
2018-06-17T13:50:17.837Z,725
2018-06-17T13:51:28.124Z,620
2018-06-17T13:52:38.362Z,580
2018-06-17T13:53:48.789Z,535
2018-06-17T13:54:58.978Z,520
2018-06-17T13:56:08.697Z,520
2018-06-17T13:57:18.914Z,530
2018-06-17T13:58:29.156Z,530
2018-06-17T13:59:39.348Z,530
2018-06-17T14:00:49.558Z,515
2018-06-17T14:01:59.718Z,495
2018-06-17T14:03:09.969Z,495
2018-06-17T14:04:20.189Z,515
2018-06-17T14:05:30.380Z,1630
2018-06-17T14:06:40.585Z,1705
2018-06-17T14:07:50.776Z,1685
2018-06-17T14:09:01.074Z,1610
2018-06-17T14:10:12.228Z,1515
2018-06-17T14:11:22.407Z,1510
2018-06-17T14:12:32.604Z,1540
2018-06-17T14:13:43.289Z,1600
2018-06-17T14:14:53.486Z,1685
2018-06-17T14:16:04.680Z,1680
2018-06-17T14:17:14.838Z,1495
2018-06-17T14:18:25.110Z,1175
2018-06-17T14:19:35.381Z,945
2018-06-17T14:20:45.573Z,705
2018-06-17T14:21:55.779Z,610
2018-06-17T14:23:06.024Z,755
2018-06-17T14:24:16.280Z,790
2018-06-17T14:25:26.466Z,870
2018-06-17T14:26:36.696Z,940
2018-06-17T14:27:46.933Z,930
2018-06-17T14:28:57.152Z,1080
2018-06-17T14:30:07.346Z,1560
2018-06-17T14:31:17.746Z,1575
2018-06-17T14:32:27.951Z,1305
2018-06-17T14:33:38.135Z,965
2018-06-17T14:34:48.296Z,1315
2018-06-17T14:35:58.494Z,1100
2018-06-17T14:37:08.784Z,945
2018-06-17T14:38:19.935Z,845
2018-06-17T14:39:30.170Z,730
2018-06-17T14:40:40.613Z,680
2018-06-17T14:41:50.824Z,795
2018-06-17T14:43:00.768Z,950
2018-06-17T14:44:10.745Z,650
2018-06-17T14:45:20.940Z,535
2018-06-17T14:46:31.393Z,520
2018-06-17T14:47:41.675Z,635
2018-06-17T14:48:51.959Z,575
2018-06-17T14:50:02.297Z,550
2018-06-17T14:51:12.499Z,535
2018-06-17T14:52:22.686Z,520
2018-06-17T14:53:32.879Z,570
2018-06-17T14:54:43.108Z,590
2018-06-17T14:55:53.366Z,575
2018-06-17T14:57:03.552Z,640
2018-06-17T14:58:13.781Z,705
2018-06-17T14:59:23.986Z,660
2018-06-17T15:00:34.207Z,730
2018-06-17T15:01:44.436Z,750
2018-06-17T15:02:54.755Z,700
2018-06-17T15:04:04.603Z,595
2018-06-17T15:05:14.988Z,595
2018-06-17T15:06:25.221Z,600
2018-06-17T15:07:35.432Z,635
2018-06-17T15:08:45.642Z,650
2018-06-17T15:09:55.892Z,635
2018-06-17T15:11:06.154Z,610
2018-06-17T15:12:16.426Z,610
2018-06-17T15:13:26.641Z,600
2018-06-17T15:14:37.125Z,595
2018-06-17T15:15:47.615Z,590
2018-06-17T15:16:57.893Z,560
2018-06-17T15:18:08.185Z,540
2018-06-17T15:19:18.289Z,495
2018-06-17T15:20:28.497Z,490
2018-06-17T15:21:38.814Z,450
2018-06-17T15:22:49.253Z,430
2018-06-17T15:23:59.557Z,435
2018-06-17T15:25:09.832Z,420
2018-06-17T15:26:20.074Z,395
2018-06-17T15:27:30.269Z,375
2018-06-17T15:28:40.597Z,350
2018-06-17T15:29:50.804Z,340
2018-06-17T15:31:01.053Z,320
2018-06-17T15:32:11.617Z,340
2018-06-17T15:33:21.877Z,335
2018-06-17T15:34:32.137Z,310
2018-06-17T15:35:42.375Z,300
2018-06-17T15:36:52.612Z,290
2018-06-17T15:38:02.842Z,280
2018-06-17T15:39:13.033Z,280
2018-06-17T15:40:23.301Z,300
2018-06-17T15:41:33.512Z,310
2018-06-17T15:42:43.702Z,350
2018-06-17T15:43:53.916Z,340
2018-06-17T15:45:04.172Z,335
2018-06-17T15:46:14.359Z,355
2018-06-17T15:47:24.613Z,340
2018-06-17T15:48:34.862Z,340
2018-06-17T15:49:45.025Z,335
2018-06-17T15:50:55.481Z,305
2018-06-17T15:52:05.876Z,290
2018-06-17T15:53:16.254Z,275
2018-06-17T15:54:26.542Z,275
2018-06-17T15:55:37.046Z,285
2018-06-17T15:56:47.303Z,295
2018-06-17T15:57:57.602Z,310
2018-06-17T15:59:07.825Z,340
2018-06-17T16:00:18.055Z,350
2018-06-17T16:01:28.288Z,365
2018-06-17T16:02:38.498Z,370
2018-06-17T16:03:48.734Z,375
2018-06-17T16:04:58.963Z,355
2018-06-17T16:06:10.167Z,345
2018-06-17T16:07:20.388Z,340
2018-06-17T16:08:30.693Z,330
2018-06-17T16:09:41.196Z,320
2018-06-17T16:10:51.516Z,315
2018-06-17T16:12:01.745Z,310
2018-06-17T16:13:11.963Z,310
2018-06-17T16:14:22.253Z,315
2018-06-17T16:15:32.445Z,315
2018-06-17T16:16:42.634Z,320
2018-06-17T16:17:52.819Z,325